Time;durP1;ratioP1;P1;durP2;ratioP2;P2;SDS_P1;SDS_P2;PMS_P1;PMS_P2;Temp;Humidity;BMP_temperature;BMP_pressure;BME280_temperature;BME280_humidity;BME280_pressure;Samples;Min_cycle;Max_cycle;Signal;HPM_P1;HPM_P2
2022/11/29 00:05:08;;;;;;;2.73;0.70;;;;;;;5.71;100.00;97534.75;18287998;32;20070;-63
2022/11/29 00:15:11;;;;;;;3.70;0.73;;;;;;;5.77;100.00;97528.44;18301029;32;20125;-63
2022/11/29 00:25:13;;;;;;;2.60;0.70;;;;;;;5.80;100.00;97521.78;18301072;32;20386;-63
2022/11/29 00:35:16;;;;;;;0.80;0.47;;;;;;;5.85;100.00;97519.19;18300456;32;20050;-63
2022/11/29 00:45:19;;;;;;;1.07;0.27;;;;;;;5.85;100.00;97518.34;18286606;32;20068;-63
2022/11/29 00:55:21;;;;;;;2.50;0.50;;;;;;;5.82;100.00;97516.16;18298594;32;20097;-63
2022/11/29 01:05:24;;;;;;;3.90;0.60;;;;;;;5.83;100.00;97512.44;18284325;32;20438;-63
2022/11/29 01:15:27;;;;;;;2.93;0.90;;;;;;;5.84;100.00;97506.00;18284733;32;20042;-63
2022/11/29 01:25:30;;;;;;;4.67;0.90;;;;;;;5.74;100.00;97510.16;18271483;32;20476;-63
2022/11/29 01:35:33;;;;;;;1.30;0.57;;;;;;;5.66;100.00;97526.66;18297130;32;20054;-63
2022/11/29 01:45:37;;;;;;;1.50;0.40;;;;;;;5.67;100.00;97517.53;18283300;32;20121;-63
2022/11/29 01:55:45;;;;;;;2.87;0.70;;;;;;;5.66;100.00;97521.28;18296375;32;20369;-63
2022/11/29 02:05:50;;;;;;;0.60;0.30;;;;;;;5.70;100.00;97511.69;18295834;32;20066;-63
2022/11/29 02:16:22;;;;;;;2.20;0.60;;;;;;;5.75;100.00;97503.72;18295287;32;20070;-63
2022/11/29 02:26:43;;;;;;;2.33;0.77;;;;;;;5.77;100.00;97501.63;18294938;32;20058;-63
2022/11/29 02:37:14;;;;;;;1.97;1.00;;;;;;;5.80;100.00;97499.50;18294697;32;20088;-63
2022/11/29 02:47:41;;;;;;;2.20;0.77;;;;;;;5.80;100.00;97500.31;18283196;32;20066;-63
2022/11/29 02:57:50;;;;;;;2.90;1.10;;;;;;;5.84;100.00;97496.09;18293785;32;20327;-63
2022/11/29 03:08:07;;;;;;;1.53;0.70;;;;;;;5.80;100.00;97494.13;18293277;32;20397;-63
2022/11/29 03:18:40;;;;;;;2.37;0.70;;;;;;;5.75;100.00;97486.81;18297860;32;20073;-63
2022/11/29 03:28:46;;;;;;;2.40;1.20;;;;;;;5.75;100.00;97501.03;18303688;32;20363;-63
2022/11/29 03:38:54;;;;;;;2.10;1.00;;;;;;;5.81;100.00;97507.31;18289125;32;20068;-63
2022/11/29 03:49:12;;;;;;;4.00;1.20;;;;;;;5.85;100.00;97510.31;18302898;32;20082;-64
2022/11/29 03:59:24;;;;;;;2.97;0.80;;;;;;;5.84;100.00;97512.19;18302083;32;20053;-63
2022/11/29 04:09:45;;;;;;;2.13;1.10;;;;;;;5.84;100.00;97516.72;18287859;32;20411;-63
2022/11/29 04:20:17;;;;;;;2.60;0.97;;;;;;;5.80;100.00;97527.16;18287788;32;20050;-63
2022/11/29 04:30:22;;;;;;;3.40;1.10;;;;;;;5.81;100.00;97530.63;18299886;32;20434;-63
2022/11/29 04:40:37;;;;;;;3.10;1.23;;;;;;;5.84;100.00;97525.59;18286578;32;20442;-63
2022/11/29 04:51:09;;;;;;;2.30;1.10;;;;;;;5.87;100.00;97532.37;18299613;32;20096;-63
2022/11/29 05:01:39;;;;;;;3.77;1.20;;;;;;;5.84;100.00;97535.50;18235157;32;20051;-63
2022/11/29 05:11:56;;;;;;;1.57;0.70;;;;;;;5.83;100.00;97547.31;18236025;32;20106;-63
2022/11/29 05:22:33;;;;;;;2.30;0.80;;;;;;;5.73;100.00;97564.06;18235572;32;20055;-63
2022/11/29 05:33:06;;;;;;;2.57;1.10;;;;;;;5.68;100.00;97566.62;18235167;32;20117;-63
2022/11/29 05:43:23;;;;;;;1.77;0.93;;;;;;;5.63;100.00;97579.94;18234284;32;20085;-63
2022/11/29 05:53:43;;;;;;;2.13;0.97;;;;;;;5.55;100.00;97579.28;18237779;32;20131;-63
2022/11/29 06:03:55;;;;;;;4.60;1.10;;;;;;;5.45;100.00;97580.97;18296151;32;20049;-63
2022/11/29 06:14:12;;;;;;;2.40;0.93;;;;;;;5.36;100.00;97585.91;18282562;32;20084;-63
2022/11/29 06:24:28;;;;;;;4.17;1.07;;;;;;;5.28;100.00;97592.44;18295180;32;20118;-63
2022/11/29 06:34:41;;;;;;;2.40;0.83;;;;;;;5.27;100.00;97609.56;18294949;32;20061;-63
2022/11/29 06:44:45;;;;;;;1.40;0.77;;;;;;;5.23;100.00;97605.72;18294157;32;20058;-63
2022/11/29 06:55:08;;;;;;;2.67;0.93;;;;;;;5.16;100.00;97608.53;18301017;32;20045;-63
2022/11/29 07:05:30;;;;;;;3.87;1.30;;;;;;;5.06;100.00;97619.88;18290895;32;20073;-63
2022/11/29 07:15:35;;;;;;;3.63;0.90;;;;;;;5.06;100.00;97629.78;18291186;32;20593;-63
2022/11/29 07:26:00;;;;;;;2.20;1.03;;;;;;;5.07;100.00;97634.91;18303782;32;20054;-63
2022/11/29 07:36:16;;;;;;;2.30;1.00;;;;;;;5.17;100.00;97638.87;18303268;32;20108;-63
2022/11/29 07:46:19;;;;;;;1.20;0.70;;;;;;;5.42;100.00;97654.66;18302968;32;20055;-63
2022/11/29 07:56:22;;;;;;;1.40;0.90;;;;;;;5.68;100.00;97664.03;18302186;32;20046;-63
2022/11/29 08:06:25;;;;;;;1.83;0.90;;;;;;;5.95;100.00;97663.47;18301444;32;20054;-63
2022/11/29 08:16:28;;;;;;;2.47;1.23;;;;;;;6.24;100.00;97658.91;18301468;32;20062;-63
2022/11/29 08:26:32;;;;;;;2.37;0.83;;;;;;;6.60;100.00;97677.50;18300596;32;20047;-63
2022/11/29 08:36:35;;;;;;;5.93;1.70;;;;;;;6.94;100.00;97683.66;18300458;32;20058;-63
2022/11/29 08:56:59;;;;;;;4.30;2.27;;;;;;;7.46;100.00;97695.16;18299297;32;20054;-63
2022/11/29 09:07:22;;;;;;;4.50;1.63;;;;;;;7.71;100.00;97705.41;18299143;32;20362;-63
2022/11/29 09:17:26;;;;;;;2.83;1.93;;;;;;;7.84;100.00;97704.25;18297990;32;20391;-63
2022/11/29 09:27:30;;;;;;;2.10;1.10;;;;;;;7.90;100.00;97708.59;18284384;32;20380;-63
2022/11/29 09:37:34;;;;;;;3.63;1.83;;;;;;;7.95;100.00;97726.72;18283782;32;20145;-63
2022/11/29 09:47:56;;;;;;;5.90;1.70;;;;;;;7.96;100.00;97722.94;18283481;32;20054;-63
2022/11/29 09:58:02;;;;;;;2.97;1.60;;;;;;;8.36;100.00;97740.62;18296231;32;20091;-63
2022/11/29 10:08:13;;;;;;;6.60;2.33;;;;;;;8.76;100.00;97742.09;18296066;32;20066;-63
2022/11/29 10:18:20;;;;;;;4.57;2.20;;;;;;;8.84;100.00;97745.41;18295808;32;20389;-63
2022/11/29 10:28:31;;;;;;;4.20;2.20;;;;;;;8.78;100.00;97733.75;18294303;32;20054;-63
2022/11/29 10:38:34;;;;;;;3.83;1.77;;;;;;;9.11;100.00;97743.47;18294473;32;20078;-63
2022/11/29 10:48:37;;;;;;;4.87;1.80;;;;;;;9.31;100.00;97732.00;18267938;32;20051;-64
2022/11/29 10:59:17;;;;;;;6.70;1.80;;;;;;;9.54;99.45;97729.16;18293298;32;20531;-63
2022/11/29 11:09:40;;;;;;;5.63;2.77;;;;;;;9.45;93.66;97728.84;17973496;33;20121;-63
2022/11/29 11:20:04;;;;;;;4.33;2.20;;;;;;;9.21;96.03;97721.16;17972887;32;20071;-63
2022/11/29 11:30:22;;;;;;;4.23;1.73;;;;;;;9.01;97.80;97715.63;17972905;33;20445;-63
2022/11/29 11:40:27;;;;;;;5.73;1.87;;;;;;;9.13;98.91;97710.84;18095046;32;20062;-63
2022/11/29 11:50:33;;;;;;;5.07;1.33;;;;;;;9.61;95.48;97716.25;18302818;32;20062;-63
2022/11/29 12:00:52;;;;;;;5.13;1.87;;;;;;;9.58;89.82;97730.25;18288562;32;20353;-63
2022/11/29 12:11:14;;;;;;;4.27;1.20;;;;;;;9.58;89.33;97722.97;18288058;32;20098;-63
2022/11/29 12:21:24;;;;;;;2.47;1.10;;;;;;;9.82;88.40;97741.44;18301300;32;20054;-63
2022/11/29 12:31:43;;;;;;;6.95;2.03;;;;;;;10.00;85.32;97737.47;18287025;32;20093;-63
2022/11/29 12:42:25;;;;;;;4.05;1.40;;;;;;;9.95;82.25;97737.47;18273368;32;20101;-63
2022/11/29 12:52:58;;;;;;;3.80;1.62;;;;;;;9.89;83.59;97735.81;18299092;32;20072;-63
2022/11/29 13:03:19;;;;;;;4.28;1.35;;;;;;;10.00;82.14;97741.00;18299224;32;20430;-64
2022/11/29 13:13:36;;;;;;;4.83;1.40;;;;;;;9.96;79.49;97742.59;18285177;32;20081;-63
2022/11/29 13:23:48;;;;;;;4.57;1.62;;;;;;;9.80;82.71;97752.50;18298311;32;20064;-63
2022/11/29 13:34:41;;;;;;;7.53;2.13;;;;;;;9.80;85.41;97751.72;18297498;32;20062;-63
2022/11/29 13:45:03;;;;;;;4.30;1.73;;;;;;;9.72;84.30;97760.31;18038104;32;20076;-63
2022/11/29 13:55:13;;;;;;;4.87;1.50;;;;;;;9.47;86.11;97756.41;18037486;32;20089;-63
2022/11/29 14:05:28;;;;;;;3.50;1.30;;;;;;;9.17;86.43;97763.19;18024685;32;20120;-63
2022/11/29 14:15:34;;;;;;;4.60;1.00;;;;;;;8.82;86.35;97767.22;18080274;32;20367;-63
2022/11/29 14:26:01;;;;;;;4.40;1.07;;;;;;;8.56;89.09;97760.78;18168306;32;20046;-63
2022/11/29 14:36:13;;;;;;;4.57;1.23;;;;;;;8.43;88.53;97768.19;18169325;32;20078;-63
2022/11/29 14:46:16;;;;;;;7.57;2.00;;;;;;;8.42;90.03;97774.63;18168677;32;20050;-63
2022/11/29 14:56:31;;;;;;;6.13;2.20;;;;;;;8.29;95.89;97777.72;18211842;32;20373;-63
2022/11/29 15:06:36;;;;;;;4.80;1.48;;;;;;;8.10;100.00;97783.44;18293770;32;20094;-63
2022/11/29 15:17:00;;;;;;;3.10;1.47;;;;;;;7.84;100.00;97789.53;18301253;32;20062;-63
2022/11/29 15:27:03;;;;;;;3.40;1.50;;;;;;;7.58;100.00;97792.72;18304208;32;20058;-63
2022/11/29 15:37:21;;;;;;;4.23;1.77;;;;;;;7.40;100.00;97801.88;18303422;32;20042;-63
2022/11/29 15:47:25;;;;;;;3.77;2.20;;;;;;;7.34;100.00;97802.84;18288823;32;20148;-63
2022/11/29 15:57:37;;;;;;;6.23;2.50;;;;;;;7.20;100.00;97809.62;18301981;32;20047;-63
2022/11/29 16:07:40;;;;;;;4.63;2.90;;;;;;;7.13;100.00;97815.16;18301942;32;20047;-63
2022/11/29 16:17:44;;;;;;;7.20;3.33;;;;;;;7.02;100.00;97822.25;18301655;32;20113;-63
2022/11/29 16:27:52;;;;;;;7.40;2.80;;;;;;;7.00;100.00;97826.22;18300807;32;20068;-63
2022/11/29 16:37:56;;;;;;;4.93;3.20;;;;;;;6.95;100.00;97826.97;18287123;32;20076;-63
2022/11/29 16:47:59;;;;;;;8.17;5.20;;;;;;;6.95;100.00;97832.34;18299869;32;20062;-63
2022/11/29 16:58:03;;;;;;;7.87;4.60;;;;;;;6.92;100.00;97835.50;18299324;32;20086;-63
2022/11/29 17:08:06;;;;;;;9.97;5.83;;;;;;;6.88;100.00;97845.09;18285054;32;20053;-63
2022/11/29 17:18:08;;;;;;;11.30;6.70;;;;;;;6.90;100.00;97840.31;18271991;32;20066;-63
2022/11/29 17:28:11;;;;;;;9.73;6.53;;;;;;;6.85;100.00;97845.59;18284095;32;20076;-63
2022/11/29 17:38:15;;;;;;;12.37;8.03;;;;;;;6.79;100.00;97850.88;18296846;32;20075;-63
2022/11/29 17:48:17;;;;;;;15.40;7.97;;;;;;;6.74;100.00;97853.47;18297146;32;20053;-63
2022/11/29 17:58:20;;;;;;;12.30;8.07;;;;;;;6.70;100.00;97852.34;18282749;32;20102;-63
2022/11/29 18:08:22;;;;;;;12.43;7.97;;;;;;;6.62;100.00;97858.91;18296090;32;20121;-63
2022/11/29 18:18:25;;;;;;;12.87;7.00;;;;;;;6.54;100.00;97872.72;18282005;32;20092;-63
2022/11/29 18:28:29;;;;;;;11.43;7.20;;;;;;;6.50;100.00;97878.81;18295136;32;20102;-63
2022/11/29 18:38:32;;;;;;;12.17;7.87;;;;;;;6.51;100.00;97877.72;18294644;32;20482;-63
2022/11/29 18:48:36;;;;;;;16.47;7.90;;;;;;;6.41;100.00;97881.03;18299152;32;20357;-63
2022/11/29 18:58:39;;;;;;;12.43;7.43;;;;;;;6.37;100.00;97883.41;18305150;32;20373;-63
2022/11/29 19:08:42;;;;;;;18.00;10.60;;;;;;;6.35;100.00;97893.53;18304886;32;20051;-63
2022/11/29 19:18:50;;;;;;;16.90;9.97;;;;;;;6.41;100.00;97897.97;18304153;32;20505;-63
2022/11/29 19:28:54;;;;;;;15.50;9.23;;;;;;;6.38;100.00;97901.12;18303939;32;20058;-63
2022/11/29 19:38:59;;;;;;;13.23;9.77;;;;;;;6.38;100.00;97909.19;18289322;32;20065;-63
2022/11/29 19:49:03;;;;;;;14.83;9.83;;;;;;;6.40;100.00;97904.41;18303049;32;20101;-63
2022/11/29 19:59:07;;;;;;;16.85;10.85;;;;;;;6.41;100.00;97908.72;18288022;32;20125;-63
2022/11/29 20:09:12;;;;;;;14.17;10.37;;;;;;;6.45;100.00;97911.75;18301963;32;20058;-63
2022/11/29 20:19:16;;;;;;;16.25;9.98;;;;;;;6.41;100.00;97907.91;18301403;32;20082;-63
2022/11/29 20:29:20;;;;;;;14.83;9.83;;;;;;;6.44;100.00;97919.00;18300733;32;20054;-63
2022/11/29 20:39:51;;;;;;;17.83;10.30;;;;;;;6.45;100.00;97917.12;18300553;32;20361;-63
2022/11/29 20:49:55;;;;;;;17.07;10.30;;;;;;;6.45;100.00;97919.78;18300179;32;20470;-63
2022/11/29 20:59:58;;;;;;;18.77;12.00;;;;;;;6.46;100.00;97923.31;18299250;32;20370;-63
2022/11/29 21:10:01;;;;;;;15.27;10.43;;;;;;;6.48;100.00;97922.00;18284890;32;20050;-63
2022/11/29 21:20:05;;;;;;;15.80;10.50;;;;;;;6.44;100.00;97924.38;18298180;32;20438;-63
2022/11/29 21:30:20;;;;;;;19.47;11.97;;;;;;;6.45;100.00;97922.47;18298034;32;20055;-63
2022/11/29 21:40:23;;;;;;;16.97;10.83;;;;;;;6.43;100.00;97928.09;18283703;32;20065;-63
2022/11/29 21:50:26;;;;;;;17.37;10.43;;;;;;;6.42;100.00;97931.81;18282679;32;20053;-63
2022/11/29 22:00:28;;;;;;;18.70;11.53;;;;;;;6.42;100.00;97936.41;18295972;32;20101;-63
2022/11/29 22:10:38;;;;;;;19.17;11.23;;;;;;;6.42;100.00;97937.19;18296407;32;20422;-63
2022/11/29 22:20:41;;;;;;;17.03;10.70;;;;;;;6.39;100.00;97936.88;18295219;32;20121;-63
2022/11/29 22:30:43;;;;;;;14.63;9.20;;;;;;;6.37;100.00;97931.75;18295275;32;20468;-63
2022/11/29 22:40:46;;;;;;;17.37;10.87;;;;;;;6.39;100.00;97940.38;18294774;32;20467;-63
2022/11/29 22:50:49;;;;;;;14.10;10.13;;;;;;;6.40;100.00;97939.31;18294226;32;20123;-63
2022/11/29 23:00:52;;;;;;;13.17;8.77;;;;;;;6.39;100.00;97932.31;18293735;32;20062;-63
2022/11/29 23:10:56;;;;;;;19.57;11.90;;;;;;;6.38;100.00;97938.72;18293452;32;20050;-63
2022/11/29 23:21:00;;;;;;;16.37;10.80;;;;;;;6.37;100.00;97942.47;18293572;32;20446;-63
2022/11/29 23:31:03;;;;;;;12.37;8.30;;;;;;;6.36;100.00;97935.47;18293585;32;20077;-64
2022/11/29 23:41:07;;;;;;;11.97;8.40;;;;;;;6.32;100.00;97942.37;18289431;32;20079;-63
2022/11/29 23:51:11;;;;;;;14.93;10.33;;;;;;;6.32;100.00;97942.37;18303027;32;20416;-63
